sensor_id;sensor_type;location;lat;lon;timestamp;P1;durP1;ratioP1;P2;durP2;ratioP2
31087;SDS011;17745;55.914;37.554;2023-04-06T00:01:53;12.43;;;6.80;;
31087;SDS011;17745;55.914;37.554;2023-04-06T00:04:36;9.43;;;7.03;;
31087;SDS011;17745;55.914;37.554;2023-04-06T00:07:08;7.45;;;4.75;;
31087;SDS011;17745;55.914;37.554;2023-04-06T00:09:38;9.07;;;5.70;;
31087;SDS011;17745;55.914;37.554;2023-04-06T00:12:09;8.57;;;5.35;;
31087;SDS011;17745;55.914;37.554;2023-04-06T00:14:38;10.68;;;6.60;;
31087;SDS011;17745;55.914;37.554;2023-04-06T00:17:09;10.20;;;7.43;;
31087;SDS011;17745;55.914;37.554;2023-04-06T00:19:39;10.98;;;7.50;;
31087;SDS011;17745;55.914;37.554;2023-04-06T00:22:09;9.55;;;6.72;;
31087;SDS011;17745;55.914;37.554;2023-04-06T00:24:37;10.43;;;5.55;;
31087;SDS011;17745;55.914;37.554;2023-04-06T00:27:06;8.02;;;5.65;;
31087;SDS011;17745;55.914;37.554;2023-04-06T00:29:37;14.02;;;6.62;;
31087;SDS011;17745;55.914;37.554;2023-04-06T00:32:09;12.15;;;8.70;;
31087;SDS011;17745;55.914;37.554;2023-04-06T00:34:40;13.90;;;9.07;;
31087;SDS011;17745;55.914;37.554;2023-04-06T00:37:08;9.68;;;5.68;;
31087;SDS011;17745;55.914;37.554;2023-04-06T00:39:36;14.60;;;8.27;;
31087;SDS011;17745;55.914;37.554;2023-04-06T00:42:09;13.65;;;8.50;;
31087;SDS011;17745;55.914;37.554;2023-04-06T00:44:44;13.10;;;6.93;;
31087;SDS011;17745;55.914;37.554;2023-04-06T00:47:16;11.00;;;8.02;;
31087;SDS011;17745;55.914;37.554;2023-04-06T00:49:44;14.82;;;9.35;;
31087;SDS011;17745;55.914;37.554;2023-04-06T00:52:17;8.50;;;6.07;;
31087;SDS011;17745;55.914;37.554;2023-04-06T00:54:47;15.75;;;8.10;;
31087;SDS011;17745;55.914;37.554;2023-04-06T00:57:21;10.30;;;7.70;;
31087;SDS011;17745;55.914;37.554;2023-04-06T00:59:52;12.93;;;9.38;;
31087;SDS011;17745;55.914;37.554;2023-04-06T01:02:23;10.88;;;8.02;;
31087;SDS011;17745;55.914;37.554;2023-04-06T01:04:53;13.25;;;7.87;;
31087;SDS011;17745;55.914;37.554;2023-04-06T01:07:25;11.05;;;7.07;;
31087;SDS011;17745;55.914;37.554;2023-04-06T01:09:58;13.62;;;8.55;;
31087;SDS011;17745;55.914;37.554;2023-04-06T01:12:29;9.70;;;6.90;;
31087;SDS011;17745;55.914;37.554;2023-04-06T01:15:00;11.32;;;7.65;;
31087;SDS011;17745;55.914;37.554;2023-04-06T01:17:36;10.73;;;7.50;;
31087;SDS011;17745;55.914;37.554;2023-04-06T01:20:08;13.10;;;7.57;;
31087;SDS011;17745;55.914;37.554;2023-04-06T01:22:39;9.32;;;6.05;;
31087;SDS011;17745;55.914;37.554;2023-04-06T01:25:10;11.68;;;8.32;;
31087;SDS011;17745;55.914;37.554;2023-04-06T01:27:39;9.95;;;6.55;;
31087;SDS011;17745;55.914;37.554;2023-04-06T01:30:11;12.15;;;7.65;;
31087;SDS011;17745;55.914;37.554;2023-04-06T01:32:41;9.82;;;7.03;;
31087;SDS011;17745;55.914;37.554;2023-04-06T01:35:09;19.08;;;9.65;;
31087;SDS011;17745;55.914;37.554;2023-04-06T01:37:41;14.25;;;8.90;;
31087;SDS011;17745;55.914;37.554;2023-04-06T01:40:13;12.95;;;6.43;;
31087;SDS011;17745;55.914;37.554;2023-04-06T01:42:45;12.27;;;7.30;;
31087;SDS011;17745;55.914;37.554;2023-04-06T01:45:14;12.45;;;7.43;;
31087;SDS011;17745;55.914;37.554;2023-04-06T01:47:43;9.93;;;6.35;;
31087;SDS011;17745;55.914;37.554;2023-04-06T01:50:13;12.68;;;8.13;;
31087;SDS011;17745;55.914;37.554;2023-04-06T01:52:49;10.00;;;6.87;;
31087;SDS011;17745;55.914;37.554;2023-04-06T01:55:18;8.95;;;5.62;;
31087;SDS011;17745;55.914;37.554;2023-04-06T01:57:47;12.32;;;8.45;;
31087;SDS011;17745;55.914;37.554;2023-04-06T02:00:19;12.00;;;8.73;;
31087;SDS011;17745;55.914;37.554;2023-04-06T02:02:47;8.05;;;5.53;;
31087;SDS011;17745;55.914;37.554;2023-04-06T02:05:16;13.60;;;8.15;;
31087;SDS011;17745;55.914;37.554;2023-04-06T02:07:43;10.05;;;7.62;;
31087;SDS011;17745;55.914;37.554;2023-04-06T02:10:15;10.10;;;6.72;;
31087;SDS011;17745;55.914;37.554;2023-04-06T02:12:43;12.93;;;9.18;;
31087;SDS011;17745;55.914;37.554;2023-04-06T02:15:15;10.93;;;8.20;;
31087;SDS011;17745;55.914;37.554;2023-04-06T02:17:44;11.70;;;7.95;;
31087;SDS011;17745;55.914;37.554;2023-04-06T02:20:14;14.00;;;8.23;;
31087;SDS011;17745;55.914;37.554;2023-04-06T02:22:43;14.73;;;7.40;;
31087;SDS011;17745;55.914;37.554;2023-04-06T02:25:14;14.45;;;9.13;;
31087;SDS011;17745;55.914;37.554;2023-04-06T02:27:45;14.65;;;8.38;;
31087;SDS011;17745;55.914;37.554;2023-04-06T02:30:15;11.82;;;8.23;;
31087;SDS011;17745;55.914;37.554;2023-04-06T02:32:46;12.75;;;8.43;;
31087;SDS011;17745;55.914;37.554;2023-04-06T02:35:15;10.23;;;6.85;;
31087;SDS011;17745;55.914;37.554;2023-04-06T02:38:22;13.98;;;8.50;;
31087;SDS011;17745;55.914;37.554;2023-04-06T02:41:05;13.18;;;9.45;;
31087;SDS011;17745;55.914;37.554;2023-04-06T02:44:05;11.88;;;8.40;;
31087;SDS011;17745;55.914;37.554;2023-04-06T02:47:01;12.77;;;8.63;;
31087;SDS011;17745;55.914;37.554;2023-04-06T02:49:44;12.80;;;9.13;;
31087;SDS011;17745;55.914;37.554;2023-04-06T02:52:41;12.95;;;8.52;;
31087;SDS011;17745;55.914;37.554;2023-04-06T02:55:31;10.30;;;6.35;;
31087;SDS011;17745;55.914;37.554;2023-04-06T03:01:20;13.13;;;8.13;;
31087;SDS011;17745;55.914;37.554;2023-04-06T03:03:58;12.23;;;9.30;;
31087;SDS011;17745;55.914;37.554;2023-04-06T03:06:58;8.50;;;6.57;;
31087;SDS011;17745;55.914;37.554;2023-04-06T03:09:43;9.70;;;7.78;;
31087;SDS011;17745;55.914;37.554;2023-04-06T03:19:20;12.57;;;8.65;;
31087;SDS011;17745;55.914;37.554;2023-04-06T03:22:31;11.48;;;7.57;;
31087;SDS011;17745;55.914;37.554;2023-04-06T03:25:36;15.07;;;9.85;;
31087;SDS011;17745;55.914;37.554;2023-04-06T03:28:24;15.55;;;9.82;;
31087;SDS011;17745;55.914;37.554;2023-04-06T03:31:06;11.68;;;8.32;;
31087;SDS011;17745;55.914;37.554;2023-04-06T03:33:56;14.63;;;10.35;;
31087;SDS011;17745;55.914;37.554;2023-04-06T03:37:08;14.48;;;9.27;;
31087;SDS011;17745;55.914;37.554;2023-04-06T03:40:24;14.00;;;9.98;;
31087;SDS011;17745;55.914;37.554;2023-04-06T03:43:13;14.50;;;9.73;;
31087;SDS011;17745;55.914;37.554;2023-04-06T03:45:56;10.77;;;8.30;;
31087;SDS011;17745;55.914;37.554;2023-04-06T03:48:34;12.10;;;8.95;;
31087;SDS011;17745;55.914;37.554;2023-04-06T03:51:14;13.88;;;8.35;;
31087;SDS011;17745;55.914;37.554;2023-04-06T03:53:44;14.65;;;8.75;;
31087;SDS011;17745;55.914;37.554;2023-04-06T03:56:16;14.45;;;9.52;;
31087;SDS011;17745;55.914;37.554;2023-04-06T03:58:47;13.00;;;8.52;;
31087;SDS011;17745;55.914;37.554;2023-04-06T04:01:16;11.70;;;7.95;;
31087;SDS011;17745;55.914;37.554;2023-04-06T04:03:48;12.20;;;8.52;;
31087;SDS011;17745;55.914;37.554;2023-04-06T04:06:17;11.05;;;8.15;;
31087;SDS011;17745;55.914;37.554;2023-04-06T04:08:45;10.80;;;7.03;;
31087;SDS011;17745;55.914;37.554;2023-04-06T04:11:17;10.68;;;8.05;;
31087;SDS011;17745;55.914;37.554;2023-04-06T04:13:47;11.20;;;7.72;;
31087;SDS011;17745;55.914;37.554;2023-04-06T04:16:15;10.18;;;6.35;;
31087;SDS011;17745;55.914;37.554;2023-04-06T04:18:55;11.07;;;7.32;;
31087;SDS011;17745;55.914;37.554;2023-04-06T04:21:24;11.75;;;7.95;;
31087;SDS011;17745;55.914;37.554;2023-04-06T04:23:53;10.35;;;6.60;;
31087;SDS011;17745;55.914;37.554;2023-04-06T04:26:24;12.98;;;8.55;;
31087;SDS011;17745;55.914;37.554;2023-04-06T04:28:56;15.63;;;6.18;;
31087;SDS011;17745;55.914;37.554;2023-04-06T04:31:25;11.35;;;8.32;;
31087;SDS011;17745;55.914;37.554;2023-04-06T04:34:02;9.00;;;5.68;;
31087;SDS011;17745;55.914;37.554;2023-04-06T04:36:39;10.27;;;6.15;;
31087;SDS011;17745;55.914;37.554;2023-04-06T04:39:09;12.98;;;7.90;;
31087;SDS011;17745;55.914;37.554;2023-04-06T04:41:47;10.70;;;7.37;;
31087;SDS011;17745;55.914;37.554;2023-04-06T04:47:07;10.07;;;6.68;;
31087;SDS011;17745;55.914;37.554;2023-04-06T04:49:39;9.40;;;6.68;;
31087;SDS011;17745;55.914;37.554;2023-04-06T04:52:07;14.45;;;7.50;;
31087;SDS011;17745;55.914;37.554;2023-04-06T04:54:37;9.38;;;5.90;;
31087;SDS011;17745;55.914;37.554;2023-04-06T04:57:08;9.68;;;6.37;;
31087;SDS011;17745;55.914;37.554;2023-04-06T04:59:39;9.98;;;6.35;;
31087;SDS011;17745;55.914;37.554;2023-04-06T05:02:08;8.15;;;4.55;;
31087;SDS011;17745;55.914;37.554;2023-04-06T05:04:39;8.52;;;5.30;;
31087;SDS011;17745;55.914;37.554;2023-04-06T05:07:10;10.70;;;6.37;;
31087;SDS011;17745;55.914;37.554;2023-04-06T05:10:03;11.20;;;6.45;;
31087;SDS011;17745;55.914;37.554;2023-04-06T05:12:40;7.75;;;4.75;;
31087;SDS011;17745;55.914;37.554;2023-04-06T05:15:09;8.90;;;5.53;;
31087;SDS011;17745;55.914;37.554;2023-04-06T05:17:40;11.00;;;6.22;;
31087;SDS011;17745;55.914;37.554;2023-04-06T05:20:11;7.28;;;4.35;;
31087;SDS011;17745;55.914;37.554;2023-04-06T05:25:21;16.42;;;6.45;;
31087;SDS011;17745;55.914;37.554;2023-04-06T05:27:52;9.77;;;5.55;;
31087;SDS011;17745;55.914;37.554;2023-04-06T05:30:23;7.25;;;4.90;;
31087;SDS011;17745;55.914;37.554;2023-04-06T05:32:52;6.45;;;4.18;;
31087;SDS011;17745;55.914;37.554;2023-04-06T05:35:22;8.68;;;5.28;;
31087;SDS011;17745;55.914;37.554;2023-04-06T05:37:51;7.00;;;4.43;;
31087;SDS011;17745;55.914;37.554;2023-04-06T05:40:21;9.85;;;5.12;;
31087;SDS011;17745;55.914;37.554;2023-04-06T05:42:56;8.45;;;5.12;;
31087;SDS011;17745;55.914;37.554;2023-04-06T05:45:24;10.18;;;5.68;;
31087;SDS011;17745;55.914;37.554;2023-04-06T05:47:53;10.30;;;4.97;;
31087;SDS011;17745;55.914;37.554;2023-04-06T05:50:25;7.85;;;4.72;;
31087;SDS011;17745;55.914;37.554;2023-04-06T05:52:56;6.82;;;3.53;;
31087;SDS011;17745;55.914;37.554;2023-04-06T05:55:25;10.02;;;5.82;;
31087;SDS011;17745;55.914;37.554;2023-04-06T05:57:54;14.50;;;5.35;;
31087;SDS011;17745;55.914;37.554;2023-04-06T06:00:23;9.68;;;4.87;;
31087;SDS011;17745;55.914;37.554;2023-04-06T06:02:55;8.38;;;5.30;;
31087;SDS011;17745;55.914;37.554;2023-04-06T06:05:28;7.80;;;5.15;;
31087;SDS011;17745;55.914;37.554;2023-04-06T06:08:02;13.85;;;4.55;;
31087;SDS011;17745;55.914;37.554;2023-04-06T06:10:31;10.23;;;5.47;;
31087;SDS011;17745;55.914;37.554;2023-04-06T06:13:01;14.73;;;4.93;;
31087;SDS011;17745;55.914;37.554;2023-04-06T06:15:29;7.28;;;4.28;;
31087;SDS011;17745;55.914;37.554;2023-04-06T06:18:34;16.42;;;5.10;;
31087;SDS011;17745;55.914;37.554;2023-04-06T06:21:05;8.52;;;4.43;;
31087;SDS011;17745;55.914;37.554;2023-04-06T06:23:33;10.80;;;4.78;;
31087;SDS011;17745;55.914;37.554;2023-04-06T06:26:02;9.98;;;4.80;;
31087;SDS011;17745;55.914;37.554;2023-04-06T06:28:31;7.68;;;4.65;;
31087;SDS011;17745;55.914;37.554;2023-04-06T06:30:59;6.72;;;4.03;;
31087;SDS011;17745;55.914;37.554;2023-04-06T06:33:29;5.82;;;3.67;;
31087;SDS011;17745;55.914;37.554;2023-04-06T06:35:57;7.80;;;4.28;;
31087;SDS011;17745;55.914;37.554;2023-04-06T06:38:31;8.70;;;4.53;;
31087;SDS011;17745;55.914;37.554;2023-04-06T06:41:03;7.65;;;4.18;;
31087;SDS011;17745;55.914;37.554;2023-04-06T06:43:50;9.98;;;4.00;;
31087;SDS011;17745;55.914;37.554;2023-04-06T06:46:21;9.88;;;4.43;;
31087;SDS011;17745;55.914;37.554;2023-04-06T06:48:51;8.25;;;4.82;;
31087;SDS011;17745;55.914;37.554;2023-04-06T06:51:19;5.60;;;3.35;;
31087;SDS011;17745;55.914;37.554;2023-04-06T06:54:12;10.68;;;3.35;;
31087;SDS011;17745;55.914;37.554;2023-04-06T06:57:04;7.72;;;3.67;;
31087;SDS011;17745;55.914;37.554;2023-04-06T06:59:59;5.65;;;3.28;;
31087;SDS011;17745;55.914;37.554;2023-04-06T07:05:45;5.45;;;3.08;;
31087;SDS011;17745;55.914;37.554;2023-04-06T07:08:23;7.75;;;3.97;;
31087;SDS011;17745;55.914;37.554;2023-04-06T07:10:57;8.57;;;3.67;;
31087;SDS011;17745;55.914;37.554;2023-04-06T07:14:00;7.62;;;4.20;;
31087;SDS011;17745;55.914;37.554;2023-04-06T07:16:39;8.13;;;4.20;;
31087;SDS011;17745;55.914;37.554;2023-04-06T07:19:07;6.55;;;4.15;;
31087;SDS011;17745;55.914;37.554;2023-04-06T07:21:41;11.38;;;4.15;;
31087;SDS011;17745;55.914;37.554;2023-04-06T07:24:19;4.55;;;2.75;;
31087;SDS011;17745;55.914;37.554;2023-04-06T07:26:53;7.65;;;3.75;;
31087;SDS011;17745;55.914;37.554;2023-04-06T07:29:23;9.25;;;5.07;;
31087;SDS011;17745;55.914;37.554;2023-04-06T07:31:54;6.40;;;3.12;;
31087;SDS011;17745;55.914;37.554;2023-04-06T07:34:27;7.40;;;4.07;;
31087;SDS011;17745;55.914;37.554;2023-04-06T07:36:56;7.62;;;4.25;;
31087;SDS011;17745;55.914;37.554;2023-04-06T07:39:24;8.60;;;4.07;;
31087;SDS011;17745;55.914;37.554;2023-04-06T07:41:57;5.18;;;2.70;;
31087;SDS011;17745;55.914;37.554;2023-04-06T07:44:25;8.07;;;2.95;;
31087;SDS011;17745;55.914;37.554;2023-04-06T07:46:54;7.20;;;3.47;;
31087;SDS011;17745;55.914;37.554;2023-04-06T07:49:28;5.37;;;2.53;;
31087;SDS011;17745;55.914;37.554;2023-04-06T07:51:56;7.82;;;3.97;;
31087;SDS011;17745;55.914;37.554;2023-04-06T07:54:29;6.03;;;3.35;;
31087;SDS011;17745;55.914;37.554;2023-04-06T07:57:05;5.18;;;3.17;;
31087;SDS011;17745;55.914;37.554;2023-04-06T07:59:40;10.15;;;3.85;;
31087;SDS011;17745;55.914;37.554;2023-04-06T08:02:08;12.20;;;3.83;;
31087;SDS011;17745;55.914;37.554;2023-04-06T08:04:42;6.75;;;3.10;;
31087;SDS011;17745;55.914;37.554;2023-04-06T08:07:17;5.78;;;3.08;;
31087;SDS011;17745;55.914;37.554;2023-04-06T08:09:45;7.55;;;3.03;;
31087;SDS011;17745;55.914;37.554;2023-04-06T08:12:21;11.63;;;3.70;;
31087;SDS011;17745;55.914;37.554;2023-04-06T08:14:56;9.00;;;3.72;;
31087;SDS011;17745;55.914;37.554;2023-04-06T08:17:29;6.45;;;3.15;;
31087;SDS011;17745;55.914;37.554;2023-04-06T08:20:02;4.70;;;2.75;;
31087;SDS011;17745;55.914;37.554;2023-04-06T08:22:30;6.53;;;3.25;;
31087;SDS011;17745;55.914;37.554;2023-04-06T08:24:58;8.05;;;3.50;;
31087;SDS011;17745;55.914;37.554;2023-04-06T08:27:46;9.63;;;3.15;;
31087;SDS011;17745;55.914;37.554;2023-04-06T08:30:14;14.13;;;3.95;;
31087;SDS011;17745;55.914;37.554;2023-04-06T08:32:42;7.03;;;3.75;;
31087;SDS011;17745;55.914;37.554;2023-04-06T08:35:14;9.27;;;3.55;;
31087;SDS011;17745;55.914;37.554;2023-04-06T08:37:46;10.25;;;3.20;;
31087;SDS011;17745;55.914;37.554;2023-04-06T08:40:22;11.45;;;3.40;;
31087;SDS011;17745;55.914;37.554;2023-04-06T08:42:56;16.58;;;3.90;;
31087;SDS011;17745;55.914;37.554;2023-04-06T08:45:32;3.80;;;1.80;;
31087;SDS011;17745;55.914;37.554;2023-04-06T08:48:00;7.47;;;3.42;;
31087;SDS011;17745;55.914;37.554;2023-04-06T08:50:38;8.75;;;3.05;;
31087;SDS011;17745;55.914;37.554;2023-04-06T08:53:13;5.57;;;3.08;;
31087;SDS011;17745;55.914;37.554;2023-04-06T08:55:50;7.03;;;2.83;;
31087;SDS011;17745;55.914;37.554;2023-04-06T08:58:24;11.90;;;2.80;;
31087;SDS011;17745;55.914;37.554;2023-04-06T09:01:11;7.12;;;2.60;;
31087;SDS011;17745;55.914;37.554;2023-04-06T09:03:41;3.17;;;2.00;;
31087;SDS011;17745;55.914;37.554;2023-04-06T09:06:11;7.82;;;2.60;;
31087;SDS011;17745;55.914;37.554;2023-04-06T09:08:41;8.57;;;2.50;;
31087;SDS011;17745;55.914;37.554;2023-04-06T09:11:15;5.72;;;2.95;;
31087;SDS011;17745;55.914;37.554;2023-04-06T09:13:47;6.87;;;3.00;;
31087;SDS011;17745;55.914;37.554;2023-04-06T09:16:16;12.60;;;2.97;;
31087;SDS011;17745;55.914;37.554;2023-04-06T09:18:45;12.37;;;3.45;;
31087;SDS011;17745;55.914;37.554;2023-04-06T09:21:16;6.50;;;2.90;;
31087;SDS011;17745;55.914;37.554;2023-04-06T09:23:45;8.70;;;2.83;;
31087;SDS011;17745;55.914;37.554;2023-04-06T09:26:25;14.48;;;3.20;;
31087;SDS011;17745;55.914;37.554;2023-04-06T09:28:56;10.95;;;3.25;;
31087;SDS011;17745;55.914;37.554;2023-04-06T09:31:28;8.57;;;3.78;;
31087;SDS011;17745;55.914;37.554;2023-04-06T09:33:59;11.73;;;2.87;;
31087;SDS011;17745;55.914;37.554;2023-04-06T09:36:30;12.05;;;3.45;;
31087;SDS011;17745;55.914;37.554;2023-04-06T09:39:08;13.75;;;3.22;;
31087;SDS011;17745;55.914;37.554;2023-04-06T09:41:38;13.25;;;3.22;;
31087;SDS011;17745;55.914;37.554;2023-04-06T09:44:11;16.17;;;3.42;;
31087;SDS011;17745;55.914;37.554;2023-04-06T09:46:59;13.35;;;3.10;;
31087;SDS011;17745;55.914;37.554;2023-04-06T09:49:28;14.38;;;3.35;;
31087;SDS011;17745;55.914;37.554;2023-04-06T09:52:02;7.55;;;3.12;;
31087;SDS011;17745;55.914;37.554;2023-04-06T09:54:31;6.03;;;2.92;;
31087;SDS011;17745;55.914;37.554;2023-04-06T09:57:03;9.48;;;3.25;;
31087;SDS011;17745;55.914;37.554;2023-04-06T09:59:40;12.20;;;4.65;;
31087;SDS011;17745;55.914;37.554;2023-04-06T10:02:16;19.75;;;3.40;;
31087;SDS011;17745;55.914;37.554;2023-04-06T10:04:55;12.50;;;3.15;;
31087;SDS011;17745;55.914;37.554;2023-04-06T10:07:26;21.00;;;3.20;;
31087;SDS011;17745;55.914;37.554;2023-04-06T10:09:58;8.98;;;3.37;;
31087;SDS011;17745;55.914;37.554;2023-04-06T10:12:38;5.70;;;3.17;;
31087;SDS011;17745;55.914;37.554;2023-04-06T10:15:29;8.57;;;3.15;;
31087;SDS011;17745;55.914;37.554;2023-04-06T10:18:16;7.55;;;2.87;;
31087;SDS011;17745;55.914;37.554;2023-04-06T10:23:39;8.38;;;3.75;;
31087;SDS011;17745;55.914;37.554;2023-04-06T10:26:27;5.15;;;2.62;;
31087;SDS011;17745;55.914;37.554;2023-04-06T10:29:01;7.10;;;3.00;;
31087;SDS011;17745;55.914;37.554;2023-04-06T10:31:32;10.35;;;3.45;;
31087;SDS011;17745;55.914;37.554;2023-04-06T10:34:01;8.50;;;3.17;;
31087;SDS011;17745;55.914;37.554;2023-04-06T10:36:31;9.35;;;3.58;;
31087;SDS011;17745;55.914;37.554;2023-04-06T10:39:02;9.07;;;3.67;;
31087;SDS011;17745;55.914;37.554;2023-04-06T10:41:50;8.27;;;3.62;;
31087;SDS011;17745;55.914;37.554;2023-04-06T10:44:20;9.68;;;3.37;;
31087;SDS011;17745;55.914;37.554;2023-04-06T10:46:56;6.90;;;2.80;;
31087;SDS011;17745;55.914;37.554;2023-04-06T10:49:33;9.32;;;3.35;;
31087;SDS011;17745;55.914;37.554;2023-04-06T10:52:03;7.40;;;2.53;;
31087;SDS011;17745;55.914;37.554;2023-04-06T10:54:42;6.75;;;2.85;;
31087;SDS011;17745;55.914;37.554;2023-04-06T10:57:27;9.02;;;2.85;;
31087;SDS011;17745;55.914;37.554;2023-04-06T11:00:08;11.40;;;2.97;;
31087;SDS011;17745;55.914;37.554;2023-04-06T11:02:43;10.20;;;2.75;;
31087;SDS011;17745;55.914;37.554;2023-04-06T11:05:15;9.93;;;4.07;;
31087;SDS011;17745;55.914;37.554;2023-04-06T11:07:46;9.23;;;2.78;;
31087;SDS011;17745;55.914;37.554;2023-04-06T11:10:20;7.72;;;2.80;;
31087;SDS011;17745;55.914;37.554;2023-04-06T11:12:52;14.90;;;3.35;;
31087;SDS011;17745;55.914;37.554;2023-04-06T11:15:24;6.28;;;2.83;;
31087;SDS011;17745;55.914;37.554;2023-04-06T11:17:55;7.15;;;2.87;;
31087;SDS011;17745;55.914;37.554;2023-04-06T11:20:25;8.38;;;2.90;;
31087;SDS011;17745;55.914;37.554;2023-04-06T11:22:56;7.00;;;2.87;;
31087;SDS011;17745;55.914;37.554;2023-04-06T11:25:33;8.52;;;2.67;;
31087;SDS011;17745;55.914;37.554;2023-04-06T11:28:01;10.80;;;2.50;;
31087;SDS011;17745;55.914;37.554;2023-04-06T11:30:29;7.80;;;2.75;;
31087;SDS011;17745;55.914;37.554;2023-04-06T11:33:02;8.40;;;2.70;;
31087;SDS011;17745;55.914;37.554;2023-04-06T11:35:30;6.50;;;2.45;;
31087;SDS011;17745;55.914;37.554;2023-04-06T11:37:59;10.25;;;2.55;;
31087;SDS011;17745;55.914;37.554;2023-04-06T11:40:30;5.47;;;2.40;;
31087;SDS011;17745;55.914;37.554;2023-04-06T11:42:59;6.05;;;2.10;;
31087;SDS011;17745;55.914;37.554;2023-04-06T11:45:27;6.10;;;2.70;;
31087;SDS011;17745;55.914;37.554;2023-04-06T11:47:57;9.45;;;2.70;;
31087;SDS011;17745;55.914;37.554;2023-04-06T11:50:32;8.02;;;2.53;;
31087;SDS011;17745;55.914;37.554;2023-04-06T11:53:01;10.75;;;2.83;;
31087;SDS011;17745;55.914;37.554;2023-04-06T11:55:36;5.95;;;2.20;;
31087;SDS011;17745;55.914;37.554;2023-04-06T11:58:11;6.57;;;2.47;;
31087;SDS011;17745;55.914;37.554;2023-04-06T12:00:39;11.60;;;2.90;;
31087;SDS011;17745;55.914;37.554;2023-04-06T12:03:11;10.52;;;3.25;;
31087;SDS011;17745;55.914;37.554;2023-04-06T12:05:43;9.00;;;2.90;;
31087;SDS011;17745;55.914;37.554;2023-04-06T12:08:13;15.32;;;3.00;;
31087;SDS011;17745;55.914;37.554;2023-04-06T12:10:43;7.70;;;2.45;;
31087;SDS011;17745;55.914;37.554;2023-04-06T12:13:19;8.75;;;2.35;;
31087;SDS011;17745;55.914;37.554;2023-04-06T12:15:47;4.53;;;2.22;;
31087;SDS011;17745;55.914;37.554;2023-04-06T12:18:15;7.28;;;2.40;;
31087;SDS011;17745;55.914;37.554;2023-04-06T12:20:45;8.60;;;2.05;;
31087;SDS011;17745;55.914;37.554;2023-04-06T12:23:13;5.97;;;1.90;;
31087;SDS011;17745;55.914;37.554;2023-04-06T12:25:42;10.15;;;2.67;;
31087;SDS011;17745;55.914;37.554;2023-04-06T12:28:12;4.72;;;2.00;;
31087;SDS011;17745;55.914;37.554;2023-04-06T12:30:42;10.40;;;2.20;;
31087;SDS011;17745;55.914;37.554;2023-04-06T12:33:15;7.40;;;2.35;;
31087;SDS011;17745;55.914;37.554;2023-04-06T12:35:42;8.73;;;2.45;;
31087;SDS011;17745;55.914;37.554;2023-04-06T12:38:12;7.43;;;2.55;;
31087;SDS011;17745;55.914;37.554;2023-04-06T12:40:40;5.72;;;2.35;;
31087;SDS011;17745;55.914;37.554;2023-04-06T12:43:08;4.93;;;2.08;;
31087;SDS011;17745;55.914;37.554;2023-04-06T12:45:36;4.20;;;2.00;;
31087;SDS011;17745;55.914;37.554;2023-04-06T12:48:08;6.60;;;2.40;;
31087;SDS011;17745;55.914;37.554;2023-04-06T12:50:38;8.82;;;2.12;;
31087;SDS011;17745;55.914;37.554;2023-04-06T12:53:08;7.65;;;2.37;;
31087;SDS011;17745;55.914;37.554;2023-04-06T12:55:36;9.15;;;2.20;;
31087;SDS011;17745;55.914;37.554;2023-04-06T12:58:03;8.15;;;2.20;;
31087;SDS011;17745;55.914;37.554;2023-04-06T13:00:31;6.47;;;2.20;;
31087;SDS011;17745;55.914;37.554;2023-04-06T13:02:59;12.63;;;2.20;;
31087;SDS011;17745;55.914;37.554;2023-04-06T13:05:27;3.97;;;2.08;;
31087;SDS011;17745;55.914;37.554;2023-04-06T13:07:55;5.97;;;2.25;;
31087;SDS011;17745;55.914;37.554;2023-04-06T13:10:24;4.90;;;1.60;;
31087;SDS011;17745;55.914;37.554;2023-04-06T13:12:52;3.37;;;1.65;;
31087;SDS011;17745;55.914;37.554;2023-04-06T13:15:21;4.82;;;1.75;;
31087;SDS011;17745;55.914;37.554;2023-04-06T13:17:49;3.15;;;1.70;;
31087;SDS011;17745;55.914;37.554;2023-04-06T13:20:17;7.15;;;2.17;;
31087;SDS011;17745;55.914;37.554;2023-04-06T13:22:45;4.15;;;1.62;;
31087;SDS011;17745;55.914;37.554;2023-04-06T13:25:13;4.68;;;1.70;;
31087;SDS011;17745;55.914;37.554;2023-04-06T13:27:42;6.47;;;2.03;;
31087;SDS011;17745;55.914;37.554;2023-04-06T13:30:12;4.22;;;1.48;;
31087;SDS011;17745;55.914;37.554;2023-04-06T13:32:40;3.62;;;1.48;;
31087;SDS011;17745;55.914;37.554;2023-04-06T13:37:57;6.72;;;1.48;;
31087;SDS011;17745;55.914;37.554;2023-04-06T13:40:25;9.38;;;1.85;;
31087;SDS011;17745;55.914;37.554;2023-04-06T13:42:57;7.40;;;1.67;;
31087;SDS011;17745;55.914;37.554;2023-04-06T13:46:01;10.50;;;1.83;;
31087;SDS011;17745;55.914;37.554;2023-04-06T13:48:49;3.67;;;1.55;;
31087;SDS011;17745;55.914;37.554;2023-04-06T13:51:37;7.45;;;2.33;;
31087;SDS011;17745;55.914;37.554;2023-04-06T13:54:23;12.27;;;2.03;;
31087;SDS011;17745;55.914;37.554;2023-04-06T13:56:53;8.05;;;1.95;;
31087;SDS011;17745;55.914;37.554;2023-04-06T13:59:33;6.10;;;1.60;;
31087;SDS011;17745;55.914;37.554;2023-04-06T14:02:11;4.37;;;1.87;;
31087;SDS011;17745;55.914;37.554;2023-04-06T14:04:41;3.83;;;1.60;;
31087;SDS011;17745;55.914;37.554;2023-04-06T14:10:17;1.85;;;1.23;;
31087;SDS011;17745;55.914;37.554;2023-04-06T14:12:47;6.87;;;1.75;;
31087;SDS011;17745;55.914;37.554;2023-04-06T14:15:17;2.70;;;1.65;;
31087;SDS011;17745;55.914;37.554;2023-04-06T14:17:45;4.45;;;1.45;;
31087;SDS011;17745;55.914;37.554;2023-04-06T14:20:15;4.87;;;1.40;;
31087;SDS011;17745;55.914;37.554;2023-04-06T14:22:43;2.83;;;1.30;;
31087;SDS011;17745;55.914;37.554;2023-04-06T14:25:12;6.05;;;1.60;;
31087;SDS011;17745;55.914;37.554;2023-04-06T14:27:41;4.20;;;1.85;;
31087;SDS011;17745;55.914;37.554;2023-04-06T14:30:10;3.60;;;1.50;;
31087;SDS011;17745;55.914;37.554;2023-04-06T14:32:41;3.08;;;1.30;;
31087;SDS011;17745;55.914;37.554;2023-04-06T14:35:12;5.32;;;1.17;;
31087;SDS011;17745;55.914;37.554;2023-04-06T14:38:16;5.20;;;1.30;;
31087;SDS011;17745;55.914;37.554;2023-04-06T14:40:44;2.53;;;1.25;;
31087;SDS011;17745;55.914;37.554;2023-04-06T14:43:12;2.15;;;1.10;;
31087;SDS011;17745;55.914;37.554;2023-04-06T14:45:41;3.45;;;1.25;;
31087;SDS011;17745;55.914;37.554;2023-04-06T14:48:10;3.92;;;1.70;;
31087;SDS011;17745;55.914;37.554;2023-04-06T14:50:58;5.20;;;1.55;;
31087;SDS011;17745;55.914;37.554;2023-04-06T14:53:27;4.87;;;1.60;;
31087;SDS011;17745;55.914;37.554;2023-04-06T14:55:55;2.40;;;1.12;;
31087;SDS011;17745;55.914;37.554;2023-04-06T14:58:42;2.87;;;1.17;;
31087;SDS011;17745;55.914;37.554;2023-04-06T15:01:27;3.62;;;1.42;;
31087;SDS011;17745;55.914;37.554;2023-04-06T15:03:57;2.72;;;1.50;;
31087;SDS011;17745;55.914;37.554;2023-04-06T15:06:25;6.28;;;1.40;;
31087;SDS011;17745;55.914;37.554;2023-04-06T15:09:11;3.60;;;1.50;;
31087;SDS011;17745;55.914;37.554;2023-04-06T15:11:40;3.37;;;1.52;;
31087;SDS011;17745;55.914;37.554;2023-04-06T15:14:28;5.37;;;1.40;;
31087;SDS011;17745;55.914;37.554;2023-04-06T15:17:01;4.20;;;1.70;;
31087;SDS011;17745;55.914;37.554;2023-04-06T15:22:19;5.00;;;1.40;;
31087;SDS011;17745;55.914;37.554;2023-04-06T15:24:47;4.68;;;1.83;;
31087;SDS011;17745;55.914;37.554;2023-04-06T15:27:16;5.37;;;1.42;;
31087;SDS011;17745;55.914;37.554;2023-04-06T15:30:02;6.07;;;1.65;;
31087;SDS011;17745;55.914;37.554;2023-04-06T15:32:33;9.10;;;1.60;;
31087;SDS011;17745;55.914;37.554;2023-04-06T15:35:11;2.95;;;1.40;;
31087;SDS011;17745;55.914;37.554;2023-04-06T15:37:39;2.15;;;1.33;;